createdAt,value
2017-08-02T00:02:20.295Z,82.82
2017-08-02T00:04:47.989Z,82.84
2017-08-02T00:07:15.648Z,83.43
2017-08-02T00:09:43.292Z,83.39
2017-08-02T00:12:10.944Z,83.64
2017-08-02T00:14:38.580Z,83.63
2017-08-02T00:17:06.192Z,83.66
2017-08-02T00:19:33.844Z,83.86
2017-08-02T00:22:01.467Z,83.84
2017-08-02T00:24:29.109Z,83.62
2017-08-02T00:26:57.209Z,84.05
2017-08-02T00:29:24.858Z,84.41
2017-08-02T00:31:52.498Z,84.33
2017-08-02T00:34:20.214Z,84.00
2017-08-02T00:36:47.868Z,83.93
2017-08-02T00:39:15.473Z,83.22
2017-08-02T00:41:43.090Z,83.24
2017-08-02T00:44:10.740Z,83.14
2017-08-02T00:46:38.439Z,83.71
2017-08-02T00:49:06.071Z,83.74
2017-08-02T00:51:35.071Z,83.07
2017-08-02T00:54:02.706Z,83.73
2017-08-02T00:56:31.119Z,82.97
2017-08-02T00:58:58.801Z,82.22
2017-08-02T01:01:26.390Z,81.94
2017-08-02T01:03:54.035Z,81.87
2017-08-02T01:06:21.673Z,82.08
2017-08-02T01:08:50.802Z,82.79
2017-08-02T01:11:19.008Z,83.20
2017-08-02T01:13:46.625Z,82.84
2017-08-02T01:16:14.279Z,82.29
2017-08-02T01:18:41.893Z,83.02
2017-08-02T01:21:09.509Z,83.37
2017-08-02T01:23:37.108Z,83.36
2017-08-02T01:26:04.777Z,83.25
2017-08-02T01:28:32.388Z,83.63
2017-08-02T01:31:00.019Z,84.06
2017-08-02T01:33:27.619Z,84.20
2017-08-02T01:35:55.470Z,84.14
2017-08-02T01:38:23.071Z,84.17
2017-08-02T01:40:50.719Z,84.39
2017-08-02T01:43:18.332Z,84.42
2017-08-02T01:45:45.960Z,84.64
2017-08-02T01:48:13.562Z,84.69
2017-08-02T01:50:41.202Z,84.92
2017-08-02T01:53:08.827Z,85.24
2017-08-02T01:55:36.464Z,85.55
2017-08-02T01:58:04.110Z,85.95
2017-08-02T02:00:31.741Z,86.17
2017-08-02T02:02:59.358Z,86.40
2017-08-02T02:05:26.992Z,86.67
2017-08-02T02:07:54.619Z,87.16
2017-08-02T02:10:22.259Z,87.31
2017-08-02T02:12:49.855Z,87.30
2017-08-02T02:15:17.491Z,87.15
2017-08-02T02:17:45.139Z,86.88
2017-08-02T02:20:12.765Z,86.63
2017-08-02T02:22:40.383Z,86.63
2017-08-02T02:25:08.037Z,86.72
2017-08-02T02:27:35.660Z,86.82
2017-08-02T02:30:03.333Z,86.90
2017-08-02T02:32:31.189Z,87.16
2017-08-02T02:34:58.823Z,87.40
2017-08-02T02:37:26.426Z,87.90
2017-08-02T02:39:54.348Z,88.00
2017-08-02T02:42:21.974Z,87.96
2017-08-02T02:44:49.601Z,87.74
2017-08-02T02:47:17.565Z,88.28
2017-08-02T02:49:45.269Z,88.39
2017-08-02T02:52:12.946Z,88.66
2017-08-02T02:54:40.646Z,88.76
2017-08-02T02:57:08.283Z,88.85
2017-08-02T02:59:35.920Z,88.65
2017-08-02T03:02:03.553Z,88.04
2017-08-02T03:04:31.155Z,87.21
2017-08-02T03:06:58.798Z,86.26
2017-08-02T03:09:26.403Z,85.96
2017-08-02T03:11:59.870Z,85.60
2017-08-02T03:14:27.476Z,85.67
2017-08-02T03:16:55.136Z,85.80
2017-08-02T03:19:24.004Z,86.16
2017-08-02T03:21:51.846Z,85.94
2017-08-02T03:24:19.478Z,86.07
2017-08-02T03:26:48.071Z,86.39
2017-08-02T03:29:15.710Z,86.48
2017-08-02T03:31:43.430Z,86.65
2017-08-02T03:34:11.043Z,86.64
2017-08-02T03:36:38.689Z,86.92
2017-08-02T03:39:06.314Z,87.13
2017-08-02T03:41:33.960Z,86.72
2017-08-02T03:44:01.604Z,86.49
2017-08-02T03:46:29.430Z,86.26
2017-08-02T03:48:57.070Z,86.13
2017-08-02T03:51:24.720Z,86.18
2017-08-02T03:53:52.351Z,86.14
2017-08-02T03:56:19.980Z,86.00
2017-08-02T03:58:47.576Z,85.81
2017-08-02T04:01:15.213Z,85.73
2017-08-02T04:03:42.825Z,85.60
2017-08-02T04:06:10.463Z,86.28
2017-08-02T04:08:38.079Z,86.53
2017-08-02T04:11:05.711Z,86.39
2017-08-02T04:13:33.298Z,86.67
2017-08-02T04:16:00.930Z,87.07
2017-08-02T04:18:28.634Z,87.03
2017-08-02T04:20:56.258Z,86.83
2017-08-02T04:23:23.895Z,86.98
2017-08-02T04:25:51.522Z,87.32
2017-08-02T04:28:19.204Z,87.32
2017-08-02T04:30:46.843Z,86.86
2017-08-02T04:33:14.498Z,86.85
2017-08-02T04:35:42.114Z,87.61
2017-08-02T04:38:10.047Z,87.95
2017-08-02T04:40:37.657Z,87.84
2017-08-02T04:43:05.304Z,87.71
2017-08-02T04:45:34.028Z,87.67
2017-08-02T04:48:03.166Z,87.72
2017-08-02T04:50:32.056Z,87.49
2017-08-02T04:52:59.696Z,87.61
2017-08-02T04:55:27.715Z,87.41
2017-08-02T04:57:55.381Z,87.36
2017-08-02T05:00:23.219Z,87.23
2017-08-02T05:02:50.919Z,86.80
2017-08-02T05:05:18.546Z,86.68
2017-08-02T05:07:46.177Z,86.62
2017-08-02T05:10:14.455Z,86.25
2017-08-02T05:12:42.082Z,86.51
2017-08-02T05:15:09.717Z,86.60
2017-08-02T05:17:37.483Z,86.25
2017-08-02T05:20:05.101Z,86.52
2017-08-02T05:22:32.889Z,86.32
2017-08-02T05:25:00.488Z,86.35
2017-08-02T05:27:28.147Z,86.28
2017-08-02T05:29:55.768Z,86.46
2017-08-02T05:32:23.426Z,86.58
2017-08-02T05:34:51.066Z,86.33
2017-08-02T05:37:18.713Z,86.34
2017-08-02T05:39:47.385Z,86.42
2017-08-02T05:42:15.035Z,86.35
2017-08-02T05:44:43.759Z,86.91
2017-08-02T05:47:11.378Z,86.65
2017-08-02T05:49:39.015Z,86.31
2017-08-02T05:52:06.630Z,86.16
2017-08-02T05:54:34.266Z,86.35
2017-08-02T05:57:01.856Z,86.36
2017-08-02T05:59:29.508Z,86.57
2017-08-02T06:01:57.123Z,86.18
2017-08-02T06:04:24.794Z,86.17
2017-08-02T06:06:52.441Z,86.08
2017-08-02T06:09:20.065Z,85.85
2017-08-02T06:11:47.696Z,86.13
2017-08-02T06:14:15.353Z,86.05
2017-08-02T06:16:42.979Z,86.01
2017-08-02T06:19:10.614Z,84.97
2017-08-02T06:21:38.225Z,85.61
2017-08-02T06:24:05.884Z,85.50
2017-08-02T06:26:33.492Z,85.23
2017-08-02T06:29:01.123Z,85.65
2017-08-02T06:31:29.219Z,86.20
2017-08-02T06:33:57.216Z,85.62
2017-08-02T06:36:24.848Z,84.63
2017-08-02T06:38:52.487Z,85.12
2017-08-02T06:41:20.156Z,84.93
2017-08-02T06:43:47.960Z,83.95
2017-08-02T06:46:15.577Z,83.96
2017-08-02T06:48:43.256Z,83.67
2017-08-02T06:51:10.882Z,84.22
2017-08-02T06:53:38.553Z,84.25
2017-08-02T06:56:06.235Z,84.07
2017-08-02T06:58:34.476Z,83.38
2017-08-02T07:01:02.091Z,83.56
2017-08-02T07:03:29.860Z,82.90
2017-08-02T07:05:57.528Z,82.81
2017-08-02T07:08:25.155Z,82.38
2017-08-02T07:10:52.879Z,82.52
2017-08-02T07:13:20.795Z,82.48
2017-08-02T07:15:48.428Z,81.81
2017-08-02T07:18:16.094Z,82.23
2017-08-02T07:20:43.943Z,81.39
2017-08-02T07:23:11.646Z,81.47
2017-08-02T07:25:39.287Z,80.09
2017-08-02T07:28:06.877Z,79.72
2017-08-02T07:30:34.797Z,79.46
2017-08-02T07:33:02.418Z,78.17
2017-08-02T07:35:30.717Z,78.74
2017-08-02T07:37:58.423Z,77.78
2017-08-02T07:40:26.048Z,77.10
2017-08-02T07:42:54.150Z,76.82
2017-08-02T07:45:21.795Z,76.88
2017-08-02T07:47:49.419Z,76.73
2017-08-02T07:50:17.041Z,75.97
2017-08-02T07:52:44.696Z,76.59
2017-08-02T07:55:12.333Z,76.08
2017-08-02T07:57:39.932Z,75.60
2017-08-02T08:00:07.559Z,76.05
2017-08-02T08:02:35.180Z,75.54
2017-08-02T08:05:02.819Z,75.03
2017-08-02T08:07:30.448Z,74.09
2017-08-02T08:09:58.085Z,73.88
2017-08-02T08:12:25.806Z,71.74
2017-08-02T08:14:53.486Z,72.09
2017-08-02T08:17:21.195Z,72.41
2017-08-02T08:19:48.893Z,72.94
2017-08-02T08:22:16.532Z,72.82
2017-08-02T08:24:44.300Z,73.14
2017-08-02T08:27:11.919Z,73.54
2017-08-02T08:29:39.597Z,71.54
2017-08-02T08:32:07.273Z,71.09
2017-08-02T08:34:34.944Z,71.18
2017-08-02T08:37:02.605Z,71.79
2017-08-02T08:39:30.251Z,71.91
2017-08-02T08:41:58.040Z,72.73
2017-08-02T08:44:26.103Z,72.32
2017-08-02T08:46:53.722Z,72.25
2017-08-02T08:49:21.339Z,71.35
2017-08-02T08:51:49.114Z,71.58
2017-08-02T08:54:16.754Z,69.44
2017-08-02T08:56:44.424Z,70.31
2017-08-02T08:59:12.041Z,69.67
2017-08-02T09:01:39.670Z,69.00
2017-08-02T09:04:07.286Z,69.77
2017-08-02T09:06:34.926Z,68.38
2017-08-02T09:09:02.690Z,69.28
2017-08-02T09:11:30.376Z,69.12
2017-08-02T09:13:58.066Z,68.08
2017-08-02T09:16:25.867Z,67.70
2017-08-02T09:18:53.542Z,67.29
2017-08-02T09:21:21.198Z,67.76
2017-08-02T09:23:49.726Z,68.05
2017-08-02T09:26:17.391Z,66.34
2017-08-02T09:28:45.009Z,65.60
2017-08-02T09:31:12.668Z,64.85
2017-08-02T09:33:40.280Z,66.32
2017-08-02T09:36:07.919Z,67.16
2017-08-02T09:38:35.618Z,65.79
2017-08-02T09:41:03.373Z,65.91
2017-08-02T09:43:30.984Z,64.95
2017-08-02T09:45:58.640Z,65.42
2017-08-02T09:48:26.402Z,65.57
2017-08-02T09:50:54.026Z,65.95
2017-08-02T09:53:21.642Z,64.08
2017-08-02T09:55:49.299Z,64.41
2017-08-02T09:58:17.010Z,64.42
2017-08-02T10:00:44.770Z,64.54
2017-08-02T10:03:12.348Z,65.48
2017-08-02T10:05:39.978Z,65.40
2017-08-02T10:08:07.595Z,68.63
2017-08-02T10:10:35.335Z,66.83
2017-08-02T10:13:02.963Z,66.33
2017-08-02T10:15:30.571Z,67.00
2017-08-02T10:17:58.204Z,66.55
2017-08-02T10:20:25.870Z,64.94
2017-08-02T10:22:53.552Z,64.92
2017-08-02T10:25:21.176Z,64.21
2017-08-02T10:27:48.820Z,63.80
2017-08-02T10:30:16.473Z,61.87
2017-08-02T10:32:44.202Z,63.39
2017-08-02T10:35:11.829Z,64.65
2017-08-02T10:37:39.603Z,66.40
2017-08-02T10:40:07.175Z,64.87
2017-08-02T10:42:34.797Z,62.18
2017-08-02T10:45:02.439Z,64.37
2017-08-02T10:47:30.099Z,64.58
2017-08-02T10:49:59.187Z,64.59
2017-08-02T10:52:26.822Z,63.88
2017-08-02T10:54:54.431Z,63.24
2017-08-02T10:57:22.137Z,63.52
2017-08-02T10:59:49.755Z,61.38
2017-08-02T11:02:17.408Z,60.24
2017-08-02T11:04:45.575Z,61.35
2017-08-02T11:07:13.342Z,65.07
2017-08-02T11:09:40.983Z,64.70
2017-08-02T11:12:08.678Z,64.28
2017-08-02T11:14:36.306Z,62.17
2017-08-02T11:17:03.962Z,64.74
2017-08-02T11:19:31.619Z,63.92
2017-08-02T11:21:59.265Z,61.52
2017-08-02T11:24:26.893Z,61.52
2017-08-02T11:26:54.549Z,61.57
2017-08-02T11:29:22.160Z,61.37
2017-08-02T11:31:49.829Z,62.37
2017-08-02T11:34:17.584Z,62.14
2017-08-02T11:36:45.250Z,61.69
2017-08-02T11:39:12.843Z,62.43
2017-08-02T11:41:40.855Z,60.82
2017-08-02T11:44:08.487Z,61.19
2017-08-02T11:46:36.100Z,60.17
2017-08-02T11:49:03.774Z,61.94
2017-08-02T11:51:31.389Z,62.10
2017-08-02T11:53:59.075Z,61.10
2017-08-02T11:56:26.706Z,61.12
2017-08-02T11:58:54.323Z,62.97
2017-08-02T12:01:21.938Z,63.22
2017-08-02T12:03:49.685Z,61.93
2017-08-02T12:06:17.392Z,62.51
2017-08-02T12:08:45.055Z,62.21
2017-08-02T12:11:12.822Z,61.14
2017-08-02T12:13:40.469Z,62.27
2017-08-02T12:16:08.109Z,62.72
2017-08-02T12:18:35.913Z,60.39
2017-08-02T12:24:05.857Z,59.84
2017-08-02T12:26:33.521Z,58.88
2017-08-02T12:29:01.186Z,58.74
2017-08-02T12:31:28.794Z,59.13
2017-08-02T12:33:56.423Z,58.87
